Crystal Symphony — C6MY5 — position and weather

sailwx.info

Track history (hours):
 
Tides and Currents Weather Stations Pressure Air Temp Water Temp Dewpoint Dewpoint Depression Visibility Wind Speed Wind Dir Waves Ship Positions

Crystal Symphony

Operator: Crystal Cruises

Last reported at 2015-Mar-29 13:34 UTC. Time now 2015-Mar-29 13:44 UTC.
Position N 31°16' E 121°54'.

Length 238 m; draft 8 m.

Type: Passenger vessel. MMSI: 309168000.

Date/timePositionNaut miles runAvg speedWind from/ knotsBaromVisibWave heightAir tempDewpointWater temp
2015-Mar-29 13:34N 31°16' E 121°54'1110.6
2015-Mar-29 12:33N 31°20' E 121°42'9 8.8
2015-Mar-29 11:34N 31°24' E 121°33'3 3.2
2015-Mar-29 10:33N 31°20' E 121°33'5 5.5
2015-Mar-29 09:34N 31°15' E 121°32'2 1.7
2015-Mar-29 08:24N 31°15' E 121°30'0 0.1
2015-Mar-29 07:33N 31°15' E 121°30'0 0.0
2015-Mar-29 06:20N 31°15' E 121°30'0 0.0
2015-Mar-29 05:32N 31°15' E 121°30'0 0.0
2015-Mar-29 04:29N 31°15' E 121°30'0 0.0
2015-Mar-29 03:23N 31°15' E 121°30'0 0.0
2015-Mar-29 02:21N 31°15' E 121°30'0 0.0
2015-Mar-29 01:27N 31°15' E 121°30'0 0.1
2015-Mar-29 00:32N 31°15' E 121°30'0 0.0
2015-Mar-28 23:29N 31°15' E 121°30'0 0.0
2015-Mar-28 22:26N 31°15' E 121°30'0 0.0
2015-Mar-28 21:28N 31°15' E 121°30'0 0.0
2015-Mar-28 20:28N 31°15' E 121°30'0 0.0
2015-Mar-28 19:27N 31°15' E 121°30'0 0.0
2015-Mar-28 18:33N 31°15' E 121°30'0 0.0
2015-Mar-28 17:32N 31°15' E 121°30'0 0.0
2015-Mar-28 16:32N 31°15' E 121°30'0 0.0
2015-Mar-28 15:32N 31°15' E 121°30'0 0.0
2015-Mar-28 14:31N 31°15' E 121°30'0 0.0
2015-Mar-28 13:22N 31°15' E 121°30'0 0.0
2015-Mar-28 12:27N 31°15' E 121°30'0 0.0
2015-Mar-28 11:30N 31°15' E 121°30'0 0.0
2015-Mar-28 10:33N 31°15' E 121°30'0 0.0
2015-Mar-28 09:33N 31°15' E 121°30'0 0.0
2015-Mar-28 08:29N 31°15' E 121°30'0 0.0
2015-Mar-28 07:26N 31°15' E 121°30'0 0.0
2015-Mar-28 06:23N 31°15' E 121°30'0 0.0
2015-Mar-28 05:25N 31°15' E 121°30'0 0.0
2015-Mar-28 04:25N 31°15' E 121°30'0 0.0
2015-Mar-28 03:27N 31°15' E 121°30'0 0.0
2015-Mar-28 02:27N 31°15' E 121°30'0 0.0
2015-Mar-28 01:32N 31°15' E 121°30'0 0.0
2015-Mar-28 00:20N 31°15' E 121°30'0 0.0
2015-Mar-27 22:24N 31°15' E 121°30'0 0.0
2015-Mar-27 21:30N 31°15' E 121°30'0 0.0
2015-Mar-27 20:26N 31°15' E 121°30'0 0.0
2015-Mar-27 19:32N 31°15' E 121°30'0 0.0
2015-Mar-27 18:22N 31°15' E 121°30'0 0.0
2015-Mar-27 17:18N 31°15' E 121°30'0 0.0
2015-Mar-27 16:30N 31°15' E 121°30'0 0.0
2015-Mar-27 15:30N 31°15' E 121°30'0 0.0
2015-Mar-27 14:29N 31°15' E 121°30'0 0.0
2015-Mar-27 13:32N 31°15' E 121°30'0 0.0
2015-Mar-27 12:19N 31°15' E 121°30'0 0.0
2015-Mar-27 11:22N 31°15' E 121°30'0 0.0
2015-Mar-27 10:27N 31°15' E 121°30'0 0.0
2015-Mar-27 09:21N 31°15' E 121°30'0 0.0
2015-Mar-27 08:21N 31°15' E 121°30'0 0.0
2015-Mar-27 07:27N 31°15' E 121°30'0 0.0
2015-Mar-27 06:17N 31°15' E 121°30'0 0.0
2015-Mar-27 05:17N 31°15' E 121°30'0 0.0
2015-Mar-27 04:10N 31°15' E 121°30'0 0.0
2015-Mar-27 03:33N 31°15' E 121°30'0 0.0
2015-Mar-27 02:25N 31°15' E 121°30'0 0.0
2015-Mar-27 01:28N 31°15' E 121°30'0 0.0
2015-Mar-27 00:09N 31°15' E 121°30'0 0.3
2015-Mar-26 23:33N 31°15' E 121°30'4 4.0
2015-Mar-26 22:33N 31°17' E 121°34'7 6.6
2015-Mar-26 21:33N 31°23' E 121°30'7 7.1
2015-Mar-26 20:33N 31°22' E 121°38'10 9.9
2015-Mar-26 19:33N 31°17' E 121°48'1111.3
2015-Mar-26 18:33N 31°15' E 122°01'1211.7
2015-Mar-26 17:33N 31°09' E 122°13'12512.3
2015-Mar-26 07:24N 29°07' E 122°40'32718.3
2015-Mar-25 13:33N 24°40' E 119°08'1918.8
2015-Mar-25 12:33N 24°30' E 118°51'4413.2
2015-Mar-25 09:14N 24°28' E 118°03'2 0.2
2015-Mar-25 00:08N 24°29' E 118°04'0 0.0
2015-Mar-24 23:30N 24°29' E 118°04'5 5.6
2015-Mar-24 22:33N 24°24' E 118°06'10 9.6
2015-Mar-24 21:33N 24°17' E 118°13'10 9.6
2015-Mar-24 20:33N 24°10' E 118°20'1010.4
2015-Mar-24 19:33N 23°60' E 118°21'238 9.5
2015-Mar-23 18:31N 22°07' E 114°34'1212.1
2015-Mar-23 17:32N 22°12' E 114°22'1010.5
2015-Mar-23 16:33N 22°18' E 114°13'3 2.6
2015-Mar-23 15:29N 22°18' E 114°10'0 0.0
2015-Mar-23 14:31N 22°18' E 114°10'0 0.0
2015-Mar-23 13:31N 22°18' E 114°10'0 0.0
2015-Mar-23 12:33N 22°18' E 114°10'0 0.0
2015-Mar-23 11:33N 22°18' E 114°10'0 0.0
2015-Mar-23 10:33N 22°18' E 114°10'0 0.0
2015-Mar-23 09:32N 22°18' E 114°10'0 0.0
2015-Mar-23 08:32N 22°18' E 114°10'0 0.0
2015-Mar-23 07:31N 22°18' E 114°10'0 0.0
2015-Mar-23 06:31N 22°18' E 114°10'0 0.0
2015-Mar-23 05:33N 22°18' E 114°10'0 0.0
2015-Mar-23 04:30N 22°18' E 114°10'0 0.0
2015-Mar-23 03:27N 22°18' E 114°10'0 0.0
2015-Mar-23 02:32N 22°18' E 114°10'0 0.0
2015-Mar-23 01:26N 22°18' E 114°10'0 0.0
2015-Mar-23 00:32N 22°18' E 114°10'0 0.0
2015-Mar-22 23:31N 22°18' E 114°10'0 0.0
2015-Mar-22 22:33N 22°18' E 114°10'0 0.0
2015-Mar-22 21:33N 22°18' E 114°10'0 0.0
2015-Mar-22 20:33N 22°18' E 114°10'0 0.0
2015-Mar-22 19:32N 22°18' E 114°10'0 0.0
2015-Mar-22 18:32N 22°18' E 114°10'0 0.0
2015-Mar-22 17:31N 22°18' E 114°10'0 0.0
2015-Mar-22 16:31N 22°18' E 114°10'0 0.0
2015-Mar-22 15:33N 22°18' E 114°10'0 0.0
2015-Mar-22 14:33N 22°18' E 114°10'0 0.0
2015-Mar-22 13:30N 22°18' E 114°10'0 0.0
2015-Mar-22 12:32N 22°18' E 114°10'0 0.0
2015-Mar-22 11:29N 22°18' E 114°10'0 0.0
2015-Mar-22 10:31N 22°18' E 114°10'0 0.0
2015-Mar-22 09:31N 22°18' E 114°10'0 0.0
2015-Mar-22 08:33N 22°18' E 114°10'0 0.0
2015-Mar-22 07:33N 22°18' E 114°10'0 0.0
2015-Mar-22 06:30N 22°18' E 114°10'0 0.0
2015-Mar-22 05:26N 22°18' E 114°10'0 0.0
2015-Mar-22 04:32N 22°18' E 114°10'0 0.0
2015-Mar-22 03:28N 22°18' E 114°10'0 0.0
2015-Mar-22 02:31N 22°18' E 114°10'0 0.0
2015-Mar-22 01:33N 22°18' E 114°10'0 0.0
2015-Mar-22 00:33N 22°18' E 114°10'0 0.0
2015-Mar-21 23:32N 22°18' E 114°10'0 0.0
2015-Mar-21 22:29N 22°18' E 114°10'0 0.0
2015-Mar-21 21:32N 22°18' E 114°10'0 0.0
2015-Mar-21 20:31N 22°18' E 114°10'0 0.0
2015-Mar-21 19:31N 22°18' E 114°10'0 0.0
2015-Mar-21 18:33N 22°18' E 114°10'0 0.0
2015-Mar-21 17:33N 22°18' E 114°10'0 0.0
2015-Mar-21 16:32N 22°18' E 114°10'0 0.0
2015-Mar-21 15:32N 22°18' E 114°10'0 0.0
2015-Mar-21 14:32N 22°18' E 114°10'0 0.0
2015-Mar-21 13:31N 22°18' E 114°10'0 0.0
2015-Mar-21 12:31N 22°18' E 114°10'0 0.0
2015-Mar-21 11:33N 22°18' E 114°10'0 0.0
2015-Mar-21 10:33N 22°18' E 114°10'0 0.0
2015-Mar-21 09:32N 22°18' E 114°10'0 0.0
2015-Mar-21 08:32N 22°18' E 114°10'0 0.0
2015-Mar-21 07:32N 22°18' E 114°10'1 0.7
2015-Mar-21 06:33N 22°17' E 114°11'5 4.7
2015-Mar-21 05:33N 22°16' E 114°16'1513.0
2015-Mar-21 04:22N 22°02' E 114°22'  
Track history (hours):
 
Tides and Currents Weather Stations Pressure Air Temp Water Temp Dewpoint Dewpoint Depression Visibility Wind Speed Wind Dir Waves Ship Positions

Crystal Symphony

Operator: Crystal Cruises

Last reported at 2015-Mar-29 13:34 UTC. Time now 2015-Mar-29 13:44 UTC.
Position N 31°16' E 121°54'.

Length 238 m; draft 8 m.

Type: Passenger vessel. MMSI: 309168000.

Date/timePositionNaut miles runAvg speedWind from/ knotsBaromVisibWave heightAir tempDewpointWater temp
2015-Mar-29 13:34N 31°16' E 121°54'1110.6
2015-Mar-29 12:33N 31°20' E 121°42'9 8.8
2015-Mar-29 11:34N 31°24' E 121°33'3 3.2
2015-Mar-29 10:33N 31°20' E 121°33'5 5.5
2015-Mar-29 09:34N 31°15' E 121°32'2 1.7
2015-Mar-29 08:24N 31°15' E 121°30'0 0.1
2015-Mar-29 07:33N 31°15' E 121°30'0 0.0
2015-Mar-29 06:20N 31°15' E 121°30'0 0.0
2015-Mar-29 05:32N 31°15' E 121°30'0 0.0
2015-Mar-29 04:29N 31°15' E 121°30'0 0.0
2015-Mar-29 03:23N 31°15' E 121°30'0 0.0
2015-Mar-29 02:21N 31°15' E 121°30'0 0.0
2015-Mar-29 01:27N 31°15' E 121°30'0 0.1
2015-Mar-29 00:32N 31°15' E 121°30'0 0.0
2015-Mar-28 23:29N 31°15' E 121°30'0 0.0
2015-Mar-28 22:26N 31°15' E 121°30'0 0.0
2015-Mar-28 21:28N 31°15' E 121°30'0 0.0
2015-Mar-28 20:28N 31°15' E 121°30'0 0.0
2015-Mar-28 19:27N 31°15' E 121°30'0 0.0
2015-Mar-28 18:33N 31°15' E 121°30'0 0.0
2015-Mar-28 17:32N 31°15' E 121°30'0 0.0
2015-Mar-28 16:32N 31°15' E 121°30'0 0.0
2015-Mar-28 15:32N 31°15' E 121°30'0 0.0
2015-Mar-28 14:31N 31°15' E 121°30'0 0.0
2015-Mar-28 13:22N 31°15' E 121°30'0 0.0
2015-Mar-28 12:27N 31°15' E 121°30'0 0.0
2015-Mar-28 11:30N 31°15' E 121°30'0 0.0
2015-Mar-28 10:33N 31°15' E 121°30'0 0.0
2015-Mar-28 09:33N 31°15' E 121°30'0 0.0
2015-Mar-28 08:29N 31°15' E 121°30'0 0.0
2015-Mar-28 07:26N 31°15' E 121°30'0 0.0
2015-Mar-28 06:23N 31°15' E 121°30'0 0.0
2015-Mar-28 05:25N 31°15' E 121°30'0 0.0
2015-Mar-28 04:25N 31°15' E 121°30'0 0.0
2015-Mar-28 03:27N 31°15' E 121°30'0 0.0
2015-Mar-28 02:27N 31°15' E 121°30'0 0.0
2015-Mar-28 01:32N 31°15' E 121°30'0 0.0
2015-Mar-28 00:20N 31°15' E 121°30'0 0.0
2015-Mar-27 22:24N 31°15' E 121°30'0 0.0
2015-Mar-27 21:30N 31°15' E 121°30'0 0.0
2015-Mar-27 20:26N 31°15' E 121°30'0 0.0
2015-Mar-27 19:32N 31°15' E 121°30'0 0.0
2015-Mar-27 18:22N 31°15' E 121°30'0 0.0
2015-Mar-27 17:18N 31°15' E 121°30'0 0.0
2015-Mar-27 16:30N 31°15' E 121°30'0 0.0
2015-Mar-27 15:30N 31°15' E 121°30'0 0.0
2015-Mar-27 14:29N 31°15' E 121°30'0 0.0
2015-Mar-27 13:32N 31°15' E 121°30'0 0.0
2015-Mar-27 12:19N 31°15' E 121°30'0 0.0
2015-Mar-27 11:22N 31°15' E 121°30'0 0.0
2015-Mar-27 10:27N 31°15' E 121°30'0 0.0
2015-Mar-27 09:21N 31°15' E 121°30'0 0.0
2015-Mar-27 08:21N 31°15' E 121°30'0 0.0
2015-Mar-27 07:27N 31°15' E 121°30'0 0.0
2015-Mar-27 06:17N 31°15' E 121°30'0 0.0
2015-Mar-27 05:17N 31°15' E 121°30'0 0.0
2015-Mar-27 04:10N 31°15' E 121°30'0 0.0
2015-Mar-27 03:33N 31°15' E 121°30'0 0.0
2015-Mar-27 02:25N 31°15' E 121°30'0 0.0
2015-Mar-27 01:28N 31°15' E 121°30'0 0.0
2015-Mar-27 00:09N 31°15' E 121°30'0 0.3
2015-Mar-26 23:33N 31°15' E 121°30'4 4.0
2015-Mar-26 22:33N 31°17' E 121°34'7 6.6
2015-Mar-26 21:33N 31°23' E 121°30'7 7.1
2015-Mar-26 20:33N 31°22' E 121°38'10 9.9
2015-Mar-26 19:33N 31°17' E 121°48'1111.3
2015-Mar-26 18:33N 31°15' E 122°01'1211.7
2015-Mar-26 17:33N 31°09' E 122°13'12512.3
2015-Mar-26 07:24N 29°07' E 122°40'32718.3
2015-Mar-25 13:33N 24°40' E 119°08'1918.8
2015-Mar-25 12:33N 24°30' E 118°51'4413.2
2015-Mar-25 09:14N 24°28' E 118°03'2 0.2
2015-Mar-25 00:08N 24°29' E 118°04'0 0.0
2015-Mar-24 23:30N 24°29' E 118°04'5 5.6
2015-Mar-24 22:33N 24°24' E 118°06'10 9.6
2015-Mar-24 21:33N 24°17' E 118°13'10 9.6
2015-Mar-24 20:33N 24°10' E 118°20'1010.4
2015-Mar-24 19:33N 23°60' E 118°21'238 9.5
2015-Mar-23 18:31N 22°07' E 114°34'1212.1
2015-Mar-23 17:32N 22°12' E 114°22'1010.5
2015-Mar-23 16:33N 22°18' E 114°13'3 2.6
2015-Mar-23 15:29N 22°18' E 114°10'0 0.0
2015-Mar-23 14:31N 22°18' E 114°10'0 0.0
2015-Mar-23 13:31N 22°18' E 114°10'0 0.0
2015-Mar-23 12:33N 22°18' E 114°10'0 0.0
2015-Mar-23 11:33N 22°18' E 114°10'0 0.0
2015-Mar-23 10:33N 22°18' E 114°10'0 0.0
2015-Mar-23 09:32N 22°18' E 114°10'0 0.0
2015-Mar-23 08:32N 22°18' E 114°10'0 0.0
2015-Mar-23 07:31N 22°18' E 114°10'0 0.0
2015-Mar-23 06:31N 22°18' E 114°10'0 0.0
2015-Mar-23 05:33N 22°18' E 114°10'0 0.0
2015-Mar-23 04:30N 22°18' E 114°10'0 0.0
2015-Mar-23 03:27N 22°18' E 114°10'0 0.0
2015-Mar-23 02:32N 22°18' E 114°10'0 0.0
2015-Mar-23 01:26N 22°18' E 114°10'0 0.0
2015-Mar-23 00:32N 22°18' E 114°10'0 0.0
2015-Mar-22 23:31N 22°18' E 114°10'0 0.0
2015-Mar-22 22:33N 22°18' E 114°10'0 0.0
2015-Mar-22 21:33N 22°18' E 114°10'0 0.0
2015-Mar-22 20:33N 22°18' E 114°10'0 0.0
2015-Mar-22 19:32N 22°18' E 114°10'0 0.0
2015-Mar-22 18:32N 22°18' E 114°10'0 0.0
2015-Mar-22 17:31N 22°18' E 114°10'0 0.0
2015-Mar-22 16:31N 22°18' E 114°10'0 0.0
2015-Mar-22 15:33N 22°18' E 114°10'0 0.0
2015-Mar-22 14:33N 22°18' E 114°10'0 0.0
2015-Mar-22 13:30N 22°18' E 114°10'0 0.0
2015-Mar-22 12:32N 22°18' E 114°10'0 0.0
2015-Mar-22 11:29N 22°18' E 114°10'0 0.0
2015-Mar-22 10:31N 22°18' E 114°10'0 0.0
2015-Mar-22 09:31N 22°18' E 114°10'0 0.0
2015-Mar-22 08:33N 22°18' E 114°10'0 0.0
2015-Mar-22 07:33N 22°18' E 114°10'0 0.0
2015-Mar-22 06:30N 22°18' E 114°10'0 0.0
2015-Mar-22 05:26N 22°18' E 114°10'0 0.0
2015-Mar-22 04:32N 22°18' E 114°10'0 0.0
2015-Mar-22 03:28N 22°18' E 114°10'0 0.0
2015-Mar-22 02:31N 22°18' E 114°10'0 0.0
2015-Mar-22 01:33N 22°18' E 114°10'0 0.0
2015-Mar-22 00:33N 22°18' E 114°10'0 0.0
2015-Mar-21 23:32N 22°18' E 114°10'0 0.0
2015-Mar-21 22:29N 22°18' E 114°10'0 0.0
2015-Mar-21 21:32N 22°18' E 114°10'0 0.0
2015-Mar-21 20:31N 22°18' E 114°10'0 0.0
2015-Mar-21 19:31N 22°18' E 114°10'0 0.0
2015-Mar-21 18:33N 22°18' E 114°10'0 0.0
2015-Mar-21 17:33N 22°18' E 114°10'0 0.0
2015-Mar-21 16:32N 22°18' E 114°10'0 0.0
2015-Mar-21 15:32N 22°18' E 114°10'0 0.0
2015-Mar-21 14:32N 22°18' E 114°10'0 0.0
2015-Mar-21 13:31N 22°18' E 114°10'0 0.0
2015-Mar-21 12:31N 22°18' E 114°10'0 0.0
2015-Mar-21 11:33N 22°18' E 114°10'0 0.0
2015-Mar-21 10:33N 22°18' E 114°10'0 0.0
2015-Mar-21 09:32N 22°18' E 114°10'0 0.0
2015-Mar-21 08:32N 22°18' E 114°10'0 0.0
2015-Mar-21 07:32N 22°18' E 114°10'1 0.7
2015-Mar-21 06:33N 22°17' E 114°11'5 4.7
2015-Mar-21 05:33N 22°16' E 114°16'1513.0
2015-Mar-21 04:22N 22°02' E 114°22'  

Dump ship's entire track history